Detroit, OR (97342)

9:29 AM PST on February 20, 2018 (GMT -0800)
santiam at packsaddle | | Change Station
Active Advisory: Winter Weather Advisory

Elev 1125 ft 44.76 °N, 122.34 °W | Updated 45 seconds ago

Overcast
Overcast
32.2 °F
Feels Like 27 °F
N
5.0
Wind Variable Wind from South

Today
High -- | Low -- °F
--% Chance of Precip.
Yesterday
High -- | Low -- °F
Precip. -- in
Pressure 30.19 in
Visibility 4.0 miles
Clouds Scattered Clouds 2300 ft
Mostly Cloudy 4400 ft
Overcast 5500 ft
Windchill 27 °F
Dew Point 27 °F
Humidity 81%
Rainfall 0.00 in
Snow Depth Not available.
7:00 AM 5:44 PM
Waxing Crescent, 23% visible
METAR KSLE 201656Z 17010KT 4SM -SN SCT023 BKN044 OVC055 02/M02 A3018 RMK AO2 SNB30 SLP222 P0000 T00171017
Pressure 30.19 in
Visibility 4.0 miles
Clouds Scattered Clouds 2300 ft
Mostly Cloudy 4400 ft
Overcast 5500 ft
Windchill 27 °F
Dew Point 27 °F
Humidity 81%
Rainfall 0.00 in
Snow Depth Not available.
7:00 AM 5:44 PM
Waxing Crescent, 23% visible
METAR KSLE 201656Z 17010KT 4SM -SN SCT023 BKN044 OVC055 02/M02 A3018 RMK AO2 SNB30 SLP222 P0000 T00171017

Get Your Daily Forecast Email!

Thanks for signing up!

Be on the lookout for a verification email in your inbox.

You'll start receiving severe weather alerts in your inbox..

×

10-Day Weather Forecast

Almanac

Astronomy

Feb. 20, 2018 Rise Set
Actual Time
Civil Twilight
Nautical Twilight
Astronomical Twilight
Moon
Length of Visible Light
Length of Day
Tomorrow will be .
, % of the Moon is Illuminated

Today's Extremes

State Highs State Lows

Community

WunderPhotos

Category 6

Welcome to Category 6. This is the collective home for Weather Underground's featured writeups by Dr. Jeff Masters (right), Bob Henson (left), Chris Burt, and other regular contributors.

Nearby

Air Quality

  Air Quality AQ Index Pollutant
Not available.

Snow Depth

Station Depth Elevation

Earthquake Activity

City Distance Mag. Time & Date
Minimum magnitude displayed is 2.5.

Coastal Water Temperatures

Place Temperature

Stations

Nearby Weather Stations

Station Location Temp. Windchill Dew Point Humidity Wind Precip. Elev Updated Type
                   

Watches & Warnings

Winter Weather Advisory
Issued: 8:26 AM PST Feb. 20, 2018 – National Weather Service

... Winter Weather Advisory in effect until 7 am PST Wednesday...

* what... snow expected. Total snow accumulations of 4 to 8 inches
are expected.

* Where... northern Oregon Cascades.

* When... until 7 am PST Wednesday.

* Additional details... plan on difficult travel conditions.
Expect reduced visibilities at times.

Precautionary/preparedness actions...

A Winter Weather Advisory for snow means periods of snow will
cause primarily travel difficulties. Expect snow covered roads
and limited visibilities, and use caution while driving. The
latest Road conditions for the state you are calling from can be
obtained by calling 5 1 1.